sensor_id;sensor_type;location;lat;lon;timestamp;P1;durP1;ratioP1;P2;durP2;ratioP2
70825;SDS011;58446;41.490;22.098;2022-09-13T00:00:33;6.27;;;3.20;;
70825;SDS011;58446;41.490;22.098;2022-09-13T00:03:00;6.95;;;2.95;;
70825;SDS011;58446;41.490;22.098;2022-09-13T00:05:26;5.85;;;2.97;;
70825;SDS011;58446;41.490;22.098;2022-09-13T00:07:52;5.50;;;2.75;;
70825;SDS011;58446;41.490;22.098;2022-09-13T00:10:19;6.50;;;3.00;;
70825;SDS011;58446;41.490;22.098;2022-09-13T00:12:46;5.93;;;2.73;;
70825;SDS011;58446;41.490;22.098;2022-09-13T00:15:12;6.68;;;2.78;;
70825;SDS011;58446;41.490;22.098;2022-09-13T00:17:38;6.60;;;3.77;;
70825;SDS011;58446;41.490;22.098;2022-09-13T00:20:03;6.85;;;3.33;;
70825;SDS011;58446;41.490;22.098;2022-09-13T00:22:30;5.82;;;3.22;;
70825;SDS011;58446;41.490;22.098;2022-09-13T00:24:55;9.77;;;2.87;;
70825;SDS011;58446;41.490;22.098;2022-09-13T00:27:21;7.05;;;2.90;;
70825;SDS011;58446;41.490;22.098;2022-09-13T00:29:47;6.67;;;3.07;;
70825;SDS011;58446;41.490;22.098;2022-09-13T00:32:12;6.35;;;3.25;;
70825;SDS011;58446;41.490;22.098;2022-09-13T00:34:38;6.97;;;3.00;;
70825;SDS011;58446;41.490;22.098;2022-09-13T00:37:04;6.00;;;3.27;;
70825;SDS011;58446;41.490;22.098;2022-09-13T00:39:29;5.93;;;2.87;;
70825;SDS011;58446;41.490;22.098;2022-09-13T00:41:55;6.63;;;3.23;;
70825;SDS011;58446;41.490;22.098;2022-09-13T00:47:15;6.45;;;3.20;;
70825;SDS011;58446;41.490;22.098;2022-09-13T00:49:47;6.82;;;3.40;;
70825;SDS011;58446;41.490;22.098;2022-09-13T00:52:17;6.00;;;3.00;;
70825;SDS011;58446;41.490;22.098;2022-09-13T00:54:47;7.30;;;3.13;;
70825;SDS011;58446;41.490;22.098;2022-09-13T00:57:17;6.63;;;3.20;;
70825;SDS011;58446;41.490;22.098;2022-09-13T01:00:05;8.85;;;3.05;;
70825;SDS011;58446;41.490;22.098;2022-09-13T01:02:43;6.55;;;3.38;;
70825;SDS011;58446;41.490;22.098;2022-09-13T01:05:32;6.47;;;2.87;;
70825;SDS011;58446;41.490;22.098;2022-09-13T01:08:01;6.43;;;3.30;;
70825;SDS011;58446;41.490;22.098;2022-09-13T01:10:37;7.45;;;2.70;;
70825;SDS011;58446;41.490;22.098;2022-09-13T01:13:11;6.28;;;3.55;;
70825;SDS011;58446;41.490;22.098;2022-09-13T01:15:43;6.72;;;3.35;;
70825;SDS011;58446;41.490;22.098;2022-09-13T01:18:10;7.03;;;2.80;;
70825;SDS011;58446;41.490;22.098;2022-09-13T01:20:54;6.03;;;3.15;;
70825;SDS011;58446;41.490;22.098;2022-09-13T01:44:02;6.80;;;3.08;;
70825;SDS011;58446;41.490;22.098;2022-09-13T01:46:36;8.00;;;3.07;;
70825;SDS011;58446;41.490;22.098;2022-09-13T01:52:00;6.70;;;3.25;;
70825;SDS011;58446;41.490;22.098;2022-09-13T01:54:37;7.00;;;2.95;;
70825;SDS011;58446;41.490;22.098;2022-09-13T01:57:31;6.15;;;3.10;;
70825;SDS011;58446;41.490;22.098;2022-09-13T02:00:06;8.37;;;3.53;;
70825;SDS011;58446;41.490;22.098;2022-09-13T02:02:40;7.80;;;3.42;;
70825;SDS011;58446;41.490;22.098;2022-09-13T02:05:28;6.85;;;2.83;;
70825;SDS011;58446;41.490;22.098;2022-09-13T02:08:17;6.05;;;3.20;;
70825;SDS011;58446;41.490;22.098;2022-09-13T02:13:35;8.43;;;3.53;;
70825;SDS011;58446;41.490;22.098;2022-09-13T02:16:09;5.97;;;3.35;;
70825;SDS011;58446;41.490;22.098;2022-09-13T02:18:40;8.55;;;2.95;;
70825;SDS011;58446;41.490;22.098;2022-09-13T02:21:45;7.70;;;3.10;;
70825;SDS011;58446;41.490;22.098;2022-09-13T02:24:08;5.72;;;2.85;;
70825;SDS011;58446;41.490;22.098;2022-09-13T02:26:38;7.03;;;3.63;;
70825;SDS011;58446;41.490;22.098;2022-09-13T02:29:09;8.82;;;3.20;;
70825;SDS011;58446;41.490;22.098;2022-09-13T02:31:41;5.55;;;3.22;;
70825;SDS011;58446;41.490;22.098;2022-09-13T02:34:14;5.55;;;2.33;;
70825;SDS011;58446;41.490;22.098;2022-09-13T02:36:44;7.30;;;3.35;;
70825;SDS011;58446;41.490;22.098;2022-09-13T02:39:14;6.80;;;3.07;;
70825;SDS011;58446;41.490;22.098;2022-09-13T02:44:42;7.93;;;3.33;;
70825;SDS011;58446;41.490;22.098;2022-09-13T02:58:09;7.22;;;3.88;;
70825;SDS011;58446;41.490;22.098;2022-09-13T03:00:43;6.50;;;3.40;;
70825;SDS011;58446;41.490;22.098;2022-09-13T03:03:11;8.52;;;4.10;;
70825;SDS011;58446;41.490;22.098;2022-09-13T03:05:39;6.10;;;3.57;;
70825;SDS011;58446;41.490;22.098;2022-09-13T03:08:06;7.57;;;3.38;;
70825;SDS011;58446;41.490;22.098;2022-09-13T03:13:37;5.75;;;3.28;;
70825;SDS011;58446;41.490;22.098;2022-09-13T03:27:50;7.22;;;3.80;;
70825;SDS011;58446;41.490;22.098;2022-09-13T03:30:37;7.95;;;4.18;;
70825;SDS011;58446;41.490;22.098;2022-09-13T03:33:16;7.20;;;4.00;;
70825;SDS011;58446;41.490;22.098;2022-09-13T03:36:21;7.38;;;3.85;;
70825;SDS011;58446;41.490;22.098;2022-09-13T03:39:00;7.30;;;4.10;;
70825;SDS011;58446;41.490;22.098;2022-09-13T03:41:55;7.65;;;3.92;;
70825;SDS011;58446;41.490;22.098;2022-09-13T03:44:26;8.32;;;4.35;;
70825;SDS011;58446;41.490;22.098;2022-09-13T03:46:55;8.27;;;3.70;;
70825;SDS011;58446;41.490;22.098;2022-09-13T03:49:25;10.75;;;4.35;;
70825;SDS011;58446;41.490;22.098;2022-09-13T03:51:55;8.18;;;4.30;;
70825;SDS011;58446;41.490;22.098;2022-09-13T03:54:31;8.13;;;3.88;;
70825;SDS011;58446;41.490;22.098;2022-09-13T03:57:05;8.18;;;4.30;;
70825;SDS011;58446;41.490;22.098;2022-09-13T03:59:38;6.77;;;3.47;;
70825;SDS011;58446;41.490;22.098;2022-09-13T04:02:09;6.13;;;3.60;;
70825;SDS011;58446;41.490;22.098;2022-09-13T04:04:38;7.22;;;3.28;;
70825;SDS011;58446;41.490;22.098;2022-09-13T04:07:08;7.10;;;3.80;;
70825;SDS011;58446;41.490;22.098;2022-09-13T04:09:35;8.35;;;3.53;;
70825;SDS011;58446;41.490;22.098;2022-09-13T04:12:01;6.60;;;3.07;;
70825;SDS011;58446;41.490;22.098;2022-09-13T04:14:26;7.93;;;3.50;;
70825;SDS011;58446;41.490;22.098;2022-09-13T04:16:53;7.00;;;3.50;;
70825;SDS011;58446;41.490;22.098;2022-09-13T04:19:20;7.63;;;3.85;;
70825;SDS011;58446;41.490;22.098;2022-09-13T04:21:47;7.75;;;3.50;;
70825;SDS011;58446;41.490;22.098;2022-09-13T04:24:13;12.35;;;4.55;;
70825;SDS011;58446;41.490;22.098;2022-09-13T04:26:39;12.37;;;5.27;;
70825;SDS011;58446;41.490;22.098;2022-09-13T04:29:05;11.18;;;4.80;;
70825;SDS011;58446;41.490;22.098;2022-09-13T04:31:31;10.30;;;6.10;;
70825;SDS011;58446;41.490;22.098;2022-09-13T04:33:56;9.15;;;5.25;;
70825;SDS011;58446;41.490;22.098;2022-09-13T04:36:24;10.63;;;5.90;;
70825;SDS011;58446;41.490;22.098;2022-09-13T04:38:50;9.70;;;5.57;;
70825;SDS011;58446;41.490;22.098;2022-09-13T04:41:15;10.02;;;5.40;;
70825;SDS011;58446;41.490;22.098;2022-09-13T04:43:41;8.17;;;5.23;;
70825;SDS011;58446;41.490;22.098;2022-09-13T04:46:07;8.02;;;4.15;;
70825;SDS011;58446;41.490;22.098;2022-09-13T04:48:33;10.15;;;5.18;;
70825;SDS011;58446;41.490;22.098;2022-09-13T04:51:03;8.32;;;4.28;;
70825;SDS011;58446;41.490;22.098;2022-09-13T04:53:29;7.60;;;4.10;;
70825;SDS011;58446;41.490;22.098;2022-09-13T04:55:59;8.18;;;3.97;;
70825;SDS011;58446;41.490;22.098;2022-09-13T04:58:26;7.65;;;4.82;;
70825;SDS011;58446;41.490;22.098;2022-09-13T05:00:51;9.18;;;3.95;;
70825;SDS011;58446;41.490;22.098;2022-09-13T05:03:21;7.53;;;4.33;;
70825;SDS011;58446;41.490;22.098;2022-09-13T05:05:47;7.47;;;3.80;;
70825;SDS011;58446;41.490;22.098;2022-09-13T05:08:13;7.95;;;4.57;;
70825;SDS011;58446;41.490;22.098;2022-09-13T05:10:38;11.67;;;4.93;;
70825;SDS011;58446;41.490;22.098;2022-09-13T05:13:04;9.27;;;4.27;;
70825;SDS011;58446;41.490;22.098;2022-09-13T05:15:30;9.32;;;3.92;;
70825;SDS011;58446;41.490;22.098;2022-09-13T05:17:55;7.80;;;4.57;;
70825;SDS011;58446;41.490;22.098;2022-09-13T05:20:21;7.80;;;4.97;;
70825;SDS011;58446;41.490;22.098;2022-09-13T05:22:46;9.37;;;5.13;;
70825;SDS011;58446;41.490;22.098;2022-09-13T05:25:12;17.45;;;13.35;;
70825;SDS011;58446;41.490;22.098;2022-09-13T05:27:38;10.17;;;5.17;;
70825;SDS011;58446;41.490;22.098;2022-09-13T05:30:04;8.23;;;4.97;;
70825;SDS011;58446;41.490;22.098;2022-09-13T05:32:31;8.77;;;4.30;;
70825;SDS011;58446;41.490;22.098;2022-09-13T05:34:56;8.33;;;3.87;;
70825;SDS011;58446;41.490;22.098;2022-09-13T05:37:22;7.63;;;3.40;;
70825;SDS011;58446;41.490;22.098;2022-09-13T05:39:48;7.73;;;4.03;;
70825;SDS011;58446;41.490;22.098;2022-09-13T05:42:13;8.15;;;3.15;;
70825;SDS011;58446;41.490;22.098;2022-09-13T05:44:39;6.93;;;3.90;;
70825;SDS011;58446;41.490;22.098;2022-09-13T05:47:05;7.30;;;3.47;;
70825;SDS011;58446;41.490;22.098;2022-09-13T05:49:30;6.65;;;3.08;;
70825;SDS011;58446;41.490;22.098;2022-09-13T05:51:56;6.93;;;3.27;;
70825;SDS011;58446;41.490;22.098;2022-09-13T05:54:22;6.90;;;3.53;;
70825;SDS011;58446;41.490;22.098;2022-09-13T05:56:48;8.98;;;3.38;;
70825;SDS011;58446;41.490;22.098;2022-09-13T05:59:16;7.18;;;3.20;;
70825;SDS011;58446;41.490;22.098;2022-09-13T06:01:42;7.63;;;3.63;;
70825;SDS011;58446;41.490;22.098;2022-09-13T06:04:07;10.87;;;3.90;;
70825;SDS011;58446;41.490;22.098;2022-09-13T06:06:33;7.13;;;3.60;;
70825;SDS011;58446;41.490;22.098;2022-09-13T06:08:59;10.10;;;3.22;;
70825;SDS011;58446;41.490;22.098;2022-09-13T06:11:25;7.60;;;3.57;;
70825;SDS011;58446;41.490;22.098;2022-09-13T06:13:51;7.53;;;3.78;;
70825;SDS011;58446;41.490;22.098;2022-09-13T06:16:17;6.80;;;3.03;;
70825;SDS011;58446;41.490;22.098;2022-09-13T06:18:43;7.50;;;3.10;;
70825;SDS011;58446;41.490;22.098;2022-09-13T06:21:11;6.30;;;2.80;;
70825;SDS011;58446;41.490;22.098;2022-09-13T06:23:45;11.07;;;2.95;;
70825;SDS011;58446;41.490;22.098;2022-09-13T06:26:12;9.02;;;2.90;;
70825;SDS011;58446;41.490;22.098;2022-09-13T06:28:39;7.75;;;2.88;;
70825;SDS011;58446;41.490;22.098;2022-09-13T06:31:07;8.47;;;3.20;;
70825;SDS011;58446;41.490;22.098;2022-09-13T06:33:38;7.70;;;3.15;;
70825;SDS011;58446;41.490;22.098;2022-09-13T06:36:06;9.10;;;3.45;;
70825;SDS011;58446;41.490;22.098;2022-09-13T06:38:37;8.27;;;3.30;;
70825;SDS011;58446;41.490;22.098;2022-09-13T06:41:04;8.70;;;3.38;;
70825;SDS011;58446;41.490;22.098;2022-09-13T06:43:32;9.13;;;3.13;;
70825;SDS011;58446;41.490;22.098;2022-09-13T06:45:59;8.90;;;2.70;;
70825;SDS011;58446;41.490;22.098;2022-09-13T06:48:32;6.93;;;2.70;;
70825;SDS011;58446;41.490;22.098;2022-09-13T06:51:00;7.90;;;2.42;;
70825;SDS011;58446;41.490;22.098;2022-09-13T06:53:28;6.20;;;2.80;;
70825;SDS011;58446;41.490;22.098;2022-09-13T06:56:01;7.23;;;2.70;;
70825;SDS011;58446;41.490;22.098;2022-09-13T06:58:27;5.93;;;2.90;;
70825;SDS011;58446;41.490;22.098;2022-09-13T07:01:03;5.97;;;2.78;;
70825;SDS011;58446;41.490;22.098;2022-09-13T07:03:34;7.57;;;3.00;;
70825;SDS011;58446;41.490;22.098;2022-09-13T07:06:05;7.13;;;3.22;;
70825;SDS011;58446;41.490;22.098;2022-09-13T07:08:32;7.40;;;2.70;;
70825;SDS011;58446;41.490;22.098;2022-09-13T07:10:58;8.32;;;3.22;;
70825;SDS011;58446;41.490;22.098;2022-09-13T07:13:24;6.40;;;2.88;;
70825;SDS011;58446;41.490;22.098;2022-09-13T07:15:50;6.53;;;3.07;;
70825;SDS011;58446;41.490;22.098;2022-09-13T07:18:15;7.43;;;2.92;;
70825;SDS011;58446;41.490;22.098;2022-09-13T07:20:41;6.50;;;2.37;;
70825;SDS011;58446;41.490;22.098;2022-09-13T07:23:07;7.32;;;2.65;;
70825;SDS011;58446;41.490;22.098;2022-09-13T07:25:32;6.67;;;2.03;;
70825;SDS011;58446;41.490;22.098;2022-09-13T07:27:58;7.20;;;2.58;;
70825;SDS011;58446;41.490;22.098;2022-09-13T07:30:24;7.63;;;2.10;;
70825;SDS011;58446;41.490;22.098;2022-09-13T07:32:50;6.57;;;2.72;;
70825;SDS011;58446;41.490;22.098;2022-09-13T07:35:16;8.88;;;2.47;;
70825;SDS011;58446;41.490;22.098;2022-09-13T07:37:42;6.37;;;2.90;;
70825;SDS011;58446;41.490;22.098;2022-09-13T07:40:10;6.18;;;2.47;;
70825;SDS011;58446;41.490;22.098;2022-09-13T07:42:36;16.93;;;3.87;;
70825;SDS011;58446;41.490;22.098;2022-09-13T07:45:02;9.75;;;2.25;;
70825;SDS011;58446;41.490;22.098;2022-09-13T07:47:31;18.23;;;2.60;;
70825;SDS011;58446;41.490;22.098;2022-09-13T07:49:57;8.40;;;2.90;;
70825;SDS011;58446;41.490;22.098;2022-09-13T07:52:23;7.20;;;2.60;;
70825;SDS011;58446;41.490;22.098;2022-09-13T07:54:49;7.57;;;2.50;;
70825;SDS011;58446;41.490;22.098;2022-09-13T07:57:14;7.60;;;3.10;;
70825;SDS011;58446;41.490;22.098;2022-09-13T07:59:40;11.93;;;2.85;;
70825;SDS011;58446;41.490;22.098;2022-09-13T08:02:07;9.33;;;3.30;;
70825;SDS011;58446;41.490;22.098;2022-09-13T08:04:33;8.57;;;2.67;;
70825;SDS011;58446;41.490;22.098;2022-09-13T08:07:00;6.68;;;2.97;;
70825;SDS011;58446;41.490;22.098;2022-09-13T08:09:25;7.38;;;3.17;;
70825;SDS011;58446;41.490;22.098;2022-09-13T08:11:51;7.70;;;3.07;;
70825;SDS011;58446;41.490;22.098;2022-09-13T08:14:18;8.55;;;3.67;;
70825;SDS011;58446;41.490;22.098;2022-09-13T08:16:45;8.23;;;3.65;;
70825;SDS011;58446;41.490;22.098;2022-09-13T08:19:12;7.15;;;3.03;;
70825;SDS011;58446;41.490;22.098;2022-09-13T08:21:40;6.70;;;3.13;;
70825;SDS011;58446;41.490;22.098;2022-09-13T08:24:10;7.13;;;3.27;;
70825;SDS011;58446;41.490;22.098;2022-09-13T08:26:40;13.63;;;3.70;;
70825;SDS011;58446;41.490;22.098;2022-09-13T08:29:06;11.88;;;3.58;;
70825;SDS011;58446;41.490;22.098;2022-09-13T08:31:32;7.67;;;3.13;;
70825;SDS011;58446;41.490;22.098;2022-09-13T08:33:59;9.80;;;3.38;;
70825;SDS011;58446;41.490;22.098;2022-09-13T08:36:25;9.10;;;2.83;;
70825;SDS011;58446;41.490;22.098;2022-09-13T08:38:55;7.95;;;3.38;;
70825;SDS011;58446;41.490;22.098;2022-09-13T08:46:50;9.27;;;4.15;;
70825;SDS011;58446;41.490;22.098;2022-09-13T08:49:28;7.47;;;3.20;;
70825;SDS011;58446;41.490;22.098;2022-09-13T08:52:00;8.48;;;4.25;;
70825;SDS011;58446;41.490;22.098;2022-09-13T08:54:41;9.80;;;4.30;;
70825;SDS011;58446;41.490;22.098;2022-09-13T08:57:15;9.63;;;4.20;;
70825;SDS011;58446;41.490;22.098;2022-09-13T09:05:45;7.75;;;4.70;;
70825;SDS011;58446;41.490;22.098;2022-09-13T09:11:13;7.32;;;3.72;;
70825;SDS011;58446;41.490;22.098;2022-09-13T09:13:54;6.78;;;3.25;;
70825;SDS011;58446;41.490;22.098;2022-09-13T09:16:32;7.20;;;4.10;;
70825;SDS011;58446;41.490;22.098;2022-09-13T09:19:15;7.03;;;4.25;;
70825;SDS011;58446;41.490;22.098;2022-09-13T09:21:52;7.03;;;3.70;;
70825;SDS011;58446;41.490;22.098;2022-09-13T09:24:21;6.68;;;3.05;;
70825;SDS011;58446;41.490;22.098;2022-09-13T09:26:49;7.82;;;3.67;;
70825;SDS011;58446;41.490;22.098;2022-09-13T09:29:21;8.00;;;3.50;;
70825;SDS011;58446;41.490;22.098;2022-09-13T09:32:00;6.90;;;3.83;;
70825;SDS011;58446;41.490;22.098;2022-09-13T09:37:19;7.13;;;3.70;;
70825;SDS011;58446;41.490;22.098;2022-09-13T09:39:50;7.00;;;3.47;;
70825;SDS011;58446;41.490;22.098;2022-09-13T09:42:18;6.80;;;3.47;;
70825;SDS011;58446;41.490;22.098;2022-09-13T09:44:51;6.43;;;3.17;;
70825;SDS011;58446;41.490;22.098;2022-09-13T09:47:22;7.10;;;3.42;;
70825;SDS011;58446;41.490;22.098;2022-09-13T09:56:27;6.17;;;2.47;;
70825;SDS011;58446;41.490;22.098;2022-09-13T09:58:40;6.28;;;3.15;;
70825;SDS011;58446;41.490;22.098;2022-09-13T10:01:21;5.95;;;2.60;;
70825;SDS011;58446;41.490;22.098;2022-09-13T10:03:51;6.15;;;2.42;;
70825;SDS011;58446;41.490;22.098;2022-09-13T10:06:24;6.07;;;2.78;;
70825;SDS011;58446;41.490;22.098;2022-09-13T10:08:59;6.23;;;2.23;;
70825;SDS011;58446;41.490;22.098;2022-09-13T10:11:37;6.75;;;2.25;;
70825;SDS011;58446;41.490;22.098;2022-09-13T10:14:44;6.70;;;2.78;;
70825;SDS011;58446;41.490;22.098;2022-09-13T10:17:14;5.40;;;2.28;;
70825;SDS011;58446;41.490;22.098;2022-09-13T10:19:52;6.28;;;2.35;;
70825;SDS011;58446;41.490;22.098;2022-09-13T10:22:23;5.20;;;1.80;;
70825;SDS011;58446;41.490;22.098;2022-09-13T10:24:50;5.60;;;2.25;;
70825;SDS011;58446;41.490;22.098;2022-09-13T10:27:22;7.25;;;2.35;;
70825;SDS011;58446;41.490;22.098;2022-09-13T10:29:53;7.35;;;2.08;;
70825;SDS011;58446;41.490;22.098;2022-09-13T10:32:24;5.30;;;2.10;;
70825;SDS011;58446;41.490;22.098;2022-09-13T10:34:51;5.43;;;2.77;;
70825;SDS011;58446;41.490;22.098;2022-09-13T10:37:19;6.53;;;3.20;;
70825;SDS011;58446;41.490;22.098;2022-09-13T10:42:26;6.43;;;2.75;;
70825;SDS011;58446;41.490;22.098;2022-09-13T10:44:54;7.18;;;2.60;;
70825;SDS011;58446;41.490;22.098;2022-09-13T10:47:28;6.20;;;2.43;;
70825;SDS011;58446;41.490;22.098;2022-09-13T10:52:44;6.18;;;2.85;;
70825;SDS011;58446;41.490;22.098;2022-09-13T10:57:44;6.63;;;3.33;;
70825;SDS011;58446;41.490;22.098;2022-09-13T11:00:12;8.07;;;2.97;;
70825;SDS011;58446;41.490;22.098;2022-09-13T11:02:52;7.65;;;3.10;;
70825;SDS011;58446;41.490;22.098;2022-09-13T11:05:40;5.75;;;2.97;;
70825;SDS011;58446;41.490;22.098;2022-09-13T11:10:57;6.50;;;2.90;;
70825;SDS011;58446;41.490;22.098;2022-09-13T11:25:16;6.17;;;2.87;;
70825;SDS011;58446;41.490;22.098;2022-09-13T11:36:52;5.63;;;2.53;;
70825;SDS011;58446;41.490;22.098;2022-09-13T11:50:00;5.47;;;2.28;;
70825;SDS011;58446;41.490;22.098;2022-09-13T11:52:37;5.23;;;2.70;;
70825;SDS011;58446;41.490;22.098;2022-09-13T11:57:57;6.40;;;3.08;;
70825;SDS011;58446;41.490;22.098;2022-09-13T12:00:30;5.45;;;2.85;;
70825;SDS011;58446;41.490;22.098;2022-09-13T12:03:14;6.10;;;2.78;;
70825;SDS011;58446;41.490;22.098;2022-09-13T12:05:49;6.50;;;2.50;;
70825;SDS011;58446;41.490;22.098;2022-09-13T12:08:20;5.38;;;2.45;;
70825;SDS011;58446;41.490;22.098;2022-09-13T12:10:59;6.68;;;2.60;;
70825;SDS011;58446;41.490;22.098;2022-09-13T12:13:34;5.43;;;2.88;;
70825;SDS011;58446;41.490;22.098;2022-09-13T12:16:06;5.50;;;2.50;;
70825;SDS011;58446;41.490;22.098;2022-09-13T12:18:47;5.60;;;2.40;;
70825;SDS011;58446;41.490;22.098;2022-09-13T12:21:16;6.25;;;2.50;;
70825;SDS011;58446;41.490;22.098;2022-09-13T12:29:21;5.50;;;3.45;;
70825;SDS011;58446;41.490;22.098;2022-09-13T12:31:56;6.60;;;2.90;;
70825;SDS011;58446;41.490;22.098;2022-09-13T12:34:29;7.05;;;3.08;;
70825;SDS011;58446;41.490;22.098;2022-09-13T12:37:23;6.63;;;3.10;;
70825;SDS011;58446;41.490;22.098;2022-09-13T12:40:08;6.07;;;3.15;;
70825;SDS011;58446;41.490;22.098;2022-09-13T12:42:56;5.85;;;2.92;;
70825;SDS011;58446;41.490;22.098;2022-09-13T12:51:34;6.75;;;3.20;;
70825;SDS011;58446;41.490;22.098;2022-09-13T12:56:46;7.15;;;3.70;;
70825;SDS011;58446;41.490;22.098;2022-09-13T12:59:37;5.87;;;3.17;;
70825;SDS011;58446;41.490;22.098;2022-09-13T13:02:26;7.20;;;3.33;;
70825;SDS011;58446;41.490;22.098;2022-09-13T13:04:54;6.38;;;3.80;;
70825;SDS011;58446;41.490;22.098;2022-09-13T13:07:23;6.18;;;3.30;;
70825;SDS011;58446;41.490;22.098;2022-09-13T13:09:50;8.25;;;4.00;;
70825;SDS011;58446;41.490;22.098;2022-09-13T13:12:37;5.90;;;3.60;;
70825;SDS011;58446;41.490;22.098;2022-09-13T13:17:50;8.20;;;3.53;;
70825;SDS011;58446;41.490;22.098;2022-09-13T13:23:15;8.07;;;4.20;;
70825;SDS011;58446;41.490;22.098;2022-09-13T13:36:26;6.90;;;4.07;;
70825;SDS011;58446;41.490;22.098;2022-09-13T13:38:53;7.13;;;4.00;;
70825;SDS011;58446;41.490;22.098;2022-09-13T13:43:58;7.20;;;4.13;;
70825;SDS011;58446;41.490;22.098;2022-09-13T13:46:26;7.15;;;3.80;;
70825;SDS011;58446;41.490;22.098;2022-09-13T13:57:37;8.98;;;4.03;;
70825;SDS011;58446;41.490;22.098;2022-09-13T14:13:56;6.50;;;4.20;;
70825;SDS011;58446;41.490;22.098;2022-09-13T14:16:50;7.72;;;3.75;;
70825;SDS011;58446;41.490;22.098;2022-09-13T14:24:43;6.93;;;4.00;;
70825;SDS011;58446;41.490;22.098;2022-09-13T14:27:16;7.30;;;3.90;;
70825;SDS011;58446;41.490;22.098;2022-09-13T14:29:49;8.02;;;4.10;;
70825;SDS011;58446;41.490;22.098;2022-09-13T14:32:19;7.13;;;4.22;;
70825;SDS011;58446;41.490;22.098;2022-09-13T14:34:51;6.25;;;2.97;;
70825;SDS011;58446;41.490;22.098;2022-09-13T14:37:30;5.85;;;3.70;;
70825;SDS011;58446;41.490;22.098;2022-09-13T14:39:59;6.80;;;3.50;;
70825;SDS011;58446;41.490;22.098;2022-09-13T14:42:47;5.95;;;3.40;;
70825;SDS011;58446;41.490;22.098;2022-09-13T14:45:14;6.07;;;3.78;;
70825;SDS011;58446;41.490;22.098;2022-09-13T14:50:15;6.60;;;3.58;;
70825;SDS011;58446;41.490;22.098;2022-09-13T14:52:48;7.33;;;3.23;;
70825;SDS011;58446;41.490;22.098;2022-09-13T14:55:20;5.80;;;3.40;;
70825;SDS011;58446;41.490;22.098;2022-09-13T14:57:52;6.60;;;3.70;;
70825;SDS011;58446;41.490;22.098;2022-09-13T15:00:22;8.02;;;3.75;;
70825;SDS011;58446;41.490;22.098;2022-09-13T15:02:51;6.85;;;3.00;;
70825;SDS011;58446;41.490;22.098;2022-09-13T15:05:19;6.23;;;2.90;;
70825;SDS011;58446;41.490;22.098;2022-09-13T15:07:47;5.88;;;3.10;;
70825;SDS011;58446;41.490;22.098;2022-09-13T15:12:48;5.72;;;3.00;;
70825;SDS011;58446;41.490;22.098;2022-09-13T15:17:59;5.30;;;2.23;;
70825;SDS011;58446;41.490;22.098;2022-09-13T15:20:26;5.57;;;2.75;;
70825;SDS011;58446;41.490;22.098;2022-09-13T15:22:54;5.43;;;3.30;;
70825;SDS011;58446;41.490;22.098;2022-09-13T15:25:27;5.33;;;2.77;;
70825;SDS011;58446;41.490;22.098;2022-09-13T15:27:54;5.80;;;3.00;;
70825;SDS011;58446;41.490;22.098;2022-09-13T15:30:28;5.95;;;3.30;;
70825;SDS011;58446;41.490;22.098;2022-09-13T15:35:40;5.72;;;2.85;;
70825;SDS011;58446;41.490;22.098;2022-09-13T15:41:19;5.70;;;3.42;;
70825;SDS011;58446;41.490;22.098;2022-09-13T15:43:48;7.15;;;3.97;;
70825;SDS011;58446;41.490;22.098;2022-09-13T15:46:14;6.15;;;3.42;;
70825;SDS011;58446;41.490;22.098;2022-09-13T15:48:43;6.85;;;3.75;;
70825;SDS011;58446;41.490;22.098;2022-09-13T15:51:16;6.53;;;3.50;;
70825;SDS011;58446;41.490;22.098;2022-09-13T15:53:43;5.93;;;3.13;;
70825;SDS011;58446;41.490;22.098;2022-09-13T15:56:14;6.35;;;3.50;;
70825;SDS011;58446;41.490;22.098;2022-09-13T15:58:44;6.75;;;2.75;;
70825;SDS011;58446;41.490;22.098;2022-09-13T16:01:11;6.53;;;3.55;;
70825;SDS011;58446;41.490;22.098;2022-09-13T16:03:37;6.00;;;2.77;;
70825;SDS011;58446;41.490;22.098;2022-09-13T16:06:03;5.45;;;2.55;;
70825;SDS011;58446;41.490;22.098;2022-09-13T16:08:29;6.97;;;2.75;;
70825;SDS011;58446;41.490;22.098;2022-09-13T16:10:56;5.82;;;3.00;;
70825;SDS011;58446;41.490;22.098;2022-09-13T16:13:22;5.17;;;2.70;;
70825;SDS011;58446;41.490;22.098;2022-09-13T16:15:48;6.03;;;2.33;;
70825;SDS011;58446;41.490;22.098;2022-09-13T16:18:14;6.00;;;2.70;;
70825;SDS011;58446;41.490;22.098;2022-09-13T16:20:41;5.63;;;2.50;;
70825;SDS011;58446;41.490;22.098;2022-09-13T16:23:07;7.03;;;3.25;;
70825;SDS011;58446;41.490;22.098;2022-09-13T16:25:33;6.97;;;2.47;;
70825;SDS011;58446;41.490;22.098;2022-09-13T16:28:00;6.15;;;2.67;;
70825;SDS011;58446;41.490;22.098;2022-09-13T16:30:26;6.35;;;2.60;;
70825;SDS011;58446;41.490;22.098;2022-09-13T16:32:54;5.60;;;2.67;;
70825;SDS011;58446;41.490;22.098;2022-09-13T16:35:21;5.85;;;2.65;;
70825;SDS011;58446;41.490;22.098;2022-09-13T16:37:47;6.13;;;2.33;;
70825;SDS011;58446;41.490;22.098;2022-09-13T16:40:16;6.95;;;3.67;;
70825;SDS011;58446;41.490;22.098;2022-09-13T16:42:42;8.60;;;3.60;;
70825;SDS011;58446;41.490;22.098;2022-09-13T16:45:08;6.90;;;2.50;;
70825;SDS011;58446;41.490;22.098;2022-09-13T16:47:34;5.57;;;2.60;;
70825;SDS011;58446;41.490;22.098;2022-09-13T16:50:01;7.90;;;2.75;;
70825;SDS011;58446;41.490;22.098;2022-09-13T16:52:27;8.80;;;3.85;;
70825;SDS011;58446;41.490;22.098;2022-09-13T16:54:53;8.63;;;3.30;;
70825;SDS011;58446;41.490;22.098;2022-09-13T16:57:19;8.17;;;3.60;;
70825;SDS011;58446;41.490;22.098;2022-09-13T16:59:45;10.88;;;3.50;;
70825;SDS011;58446;41.490;22.098;2022-09-13T17:02:12;8.98;;;3.65;;
70825;SDS011;58446;41.490;22.098;2022-09-13T17:04:38;11.73;;;5.80;;
70825;SDS011;58446;41.490;22.098;2022-09-13T17:07:04;9.33;;;4.90;;
70825;SDS011;58446;41.490;22.098;2022-09-13T17:09:34;11.32;;;4.57;;
70825;SDS011;58446;41.490;22.098;2022-09-13T17:11:59;10.60;;;4.75;;
70825;SDS011;58446;41.490;22.098;2022-09-13T17:14:26;12.27;;;5.17;;
70825;SDS011;58446;41.490;22.098;2022-09-13T17:16:52;9.38;;;4.15;;
70825;SDS011;58446;41.490;22.098;2022-09-13T17:19:23;11.75;;;4.20;;
70825;SDS011;58446;41.490;22.098;2022-09-13T17:21:58;14.35;;;4.72;;
70825;SDS011;58446;41.490;22.098;2022-09-13T17:24:25;13.53;;;4.60;;
70825;SDS011;58446;41.490;22.098;2022-09-13T17:26:52;13.60;;;7.03;;
70825;SDS011;58446;41.490;22.098;2022-09-13T17:29:20;15.85;;;7.05;;
70825;SDS011;58446;41.490;22.098;2022-09-13T17:31:46;18.07;;;9.17;;
70825;SDS011;58446;41.490;22.098;2022-09-13T17:34:12;17.35;;;8.43;;
70825;SDS011;58446;41.490;22.098;2022-09-13T17:36:38;14.00;;;8.18;;
70825;SDS011;58446;41.490;22.098;2022-09-13T17:39:05;12.93;;;6.35;;
70825;SDS011;58446;41.490;22.098;2022-09-13T17:41:31;15.17;;;6.80;;
70825;SDS011;58446;41.490;22.098;2022-09-13T17:43:56;14.07;;;6.32;;
70825;SDS011;58446;41.490;22.098;2022-09-13T17:46:23;12.70;;;6.37;;
70825;SDS011;58446;41.490;22.098;2022-09-13T17:48:52;18.75;;;7.50;;
70825;SDS011;58446;41.490;22.098;2022-09-13T17:51:19;15.98;;;8.32;;
70825;SDS011;58446;41.490;22.098;2022-09-13T17:53:50;15.77;;;7.22;;
70825;SDS011;58446;41.490;22.098;2022-09-13T17:56:22;16.50;;;8.05;;
70825;SDS011;58446;41.490;22.098;2022-09-13T17:58:50;17.03;;;9.73;;
70825;SDS011;58446;41.490;22.098;2022-09-13T18:01:16;16.25;;;8.18;;
70825;SDS011;58446;41.490;22.098;2022-09-13T18:03:42;12.25;;;7.15;;
70825;SDS011;58446;41.490;22.098;2022-09-13T18:06:08;15.10;;;6.95;;
70825;SDS011;58446;41.490;22.098;2022-09-13T18:08:36;11.00;;;4.93;;
70825;SDS011;58446;41.490;22.098;2022-09-13T18:11:05;14.43;;;5.00;;